createdAt,value
2022-08-07T00:01:12.584Z,78.95
2022-08-07T00:06:29.522Z,78.80
2022-08-07T00:11:35.487Z,79.32
2022-08-07T00:16:49.805Z,79.51
2022-08-07T00:21:56.729Z,79.51
2022-08-07T00:27:07.370Z,79.56
2022-08-07T00:32:10.782Z,80.25
2022-08-07T00:37:16.422Z,81.21
2022-08-07T00:42:18.071Z,81.37
2022-08-07T00:48:08.218Z,82.85
2022-08-07T00:52:48.700Z,82.60
2022-08-07T00:57:55.629Z,85.55
2022-08-07T01:02:57.681Z,87.72
2022-08-07T01:07:59.613Z,87.25
2022-08-07T01:13:01.914Z,90.50
2022-08-07T01:18:05.612Z,88.52
2022-08-07T01:23:13.637Z,87.65
2022-08-07T01:28:16.923Z,89.40
2022-08-07T01:33:21.534Z,89.10
2022-08-07T01:38:29.199Z,90.85
2022-08-07T01:43:38.388Z,89.97
2022-08-07T01:48:46.638Z,90.87
2022-08-07T01:54:08.861Z,90.36
2022-08-07T01:59:24.229Z,89.63
2022-08-07T02:04:57.400Z,88.90
2022-08-07T02:10:10.272Z,91.32
2022-08-07T02:15:25.449Z,95.60
2022-08-07T02:20:31.930Z,94.59
2022-08-07T02:26:30.388Z,94.99
2022-08-07T02:31:10.124Z,96.43
2022-08-07T02:36:30.487Z,97.26
2022-08-07T02:41:50.607Z,99.01
2022-08-07T02:46:59.198Z,100.00
2022-08-07T02:52:08.805Z,100.00
2022-08-07T02:57:14.286Z,100.00
2022-08-07T03:02:17.755Z,100.00
2022-08-07T03:07:21.486Z,100.00
2022-08-07T03:12:45.444Z,100.00
2022-08-07T03:17:53.459Z,100.00
2022-08-07T03:22:59.417Z,100.00
2022-08-07T03:28:36.852Z,100.00
2022-08-07T03:33:24.978Z,100.00
2022-08-07T03:38:36.283Z,100.00
2022-08-07T03:43:44.019Z,100.00
2022-08-07T03:49:02.712Z,100.00
2022-08-07T03:54:35.182Z,100.00
2022-08-07T03:59:32.014Z,100.00
2022-08-07T04:04:34.907Z,100.00
2022-08-07T04:09:45.057Z,100.00
2022-08-07T04:14:56.284Z,100.00
2022-08-07T04:19:58.770Z,100.00
2022-08-07T04:25:03.071Z,100.00
2022-08-07T04:30:21.558Z,100.00
2022-08-07T04:35:50.375Z,100.00
2022-08-07T04:40:56.722Z,100.00
2022-08-07T04:46:20.222Z,100.00
2022-08-07T04:51:49.325Z,100.00
2022-08-07T04:58:14.161Z,100.00
2022-08-07T05:02:23.276Z,100.00
2022-08-07T05:07:36.862Z,100.00
2022-08-07T05:13:01.445Z,100.00
2022-08-07T05:18:32.053Z,100.00
2022-08-07T05:23:47.600Z,100.00
2022-08-07T05:28:53.811Z,95.41
2022-08-07T05:34:05.509Z,93.94
2022-08-07T05:40:16.723Z,92.06
2022-08-07T05:44:46.632Z,88.96
2022-08-07T05:50:03.430Z,83.33
2022-08-07T05:55:10.676Z,85.46
2022-08-07T06:00:17.863Z,84.90
2022-08-07T06:05:31.163Z,82.28
2022-08-07T06:10:39.307Z,82.72
2022-08-07T06:15:49.950Z,79.43
2022-08-07T06:22:15.283Z,73.86
2022-08-07T06:26:21.621Z,72.47
2022-08-07T06:31:46.870Z,69.29
2022-08-07T06:36:52.546Z,75.14
2022-08-07T06:42:07.546Z,73.33
2022-08-07T06:47:48.395Z,66.45
2022-08-07T06:52:56.374Z,60.49
2022-08-07T06:58:10.748Z,60.89
2022-08-07T07:03:49.265Z,57.41
2022-08-07T07:08:53.864Z,55.37
2022-08-07T07:14:01.515Z,56.12
2022-08-07T07:19:40.960Z,52.64
2022-08-07T07:24:29.275Z,50.93
2022-08-07T07:30:09.456Z,49.20
2022-08-07T07:35:04.086Z,46.13
2022-08-07T07:40:14.623Z,46.57
2022-08-07T07:45:19.077Z,43.08
2022-08-07T07:50:34.518Z,42.59
2022-08-07T07:55:45.671Z,44.06
2022-08-07T08:00:58.553Z,41.70
2022-08-07T08:06:01.523Z,38.17
2022-08-07T08:11:08.986Z,39.13
2022-08-07T08:16:19.668Z,37.94
2022-08-07T08:22:02.875Z,36.59
2022-08-07T08:26:53.211Z,36.00
2022-08-07T08:32:04.809Z,35.17
2022-08-07T08:37:59.312Z,36.42
2022-08-07T08:42:51.578Z,35.30
2022-08-07T08:48:13.912Z,37.72
2022-08-07T08:53:47.134Z,33.95
2022-08-07T08:59:12.686Z,33.62
2022-08-07T09:04:25.985Z,32.32
2022-08-07T09:10:03.417Z,31.31
2022-08-07T09:16:23.930Z,31.57
2022-08-07T09:21:34.164Z,32.51
2022-08-07T09:27:17.411Z,30.45
2022-08-07T09:32:37.680Z,29.62
2022-08-07T09:37:53.677Z,28.41
2022-08-07T09:43:18.047Z,30.06
2022-08-07T09:48:29.739Z,28.51
2022-08-07T09:53:40.816Z,26.75
2022-08-07T09:59:44.566Z,26.80
2022-08-07T10:04:53.362Z,26.34
2022-08-07T10:10:28.238Z,27.79
2022-08-07T10:15:37.786Z,26.21
2022-08-07T10:21:05.054Z,26.04
2022-08-07T10:26:36.642Z,24.96
2022-08-07T10:31:49.589Z,23.23
2022-08-07T10:37:26.584Z,26.62
2022-08-07T10:43:21.281Z,26.58
2022-08-07T10:48:59.981Z,24.45
2022-08-07T10:54:25.323Z,24.47
2022-08-07T10:59:52.940Z,23.79
2022-08-07T11:05:10.644Z,24.48
2022-08-07T11:10:41.627Z,24.16
2022-08-07T11:15:54.363Z,22.59
2022-08-07T11:21:19.579Z,23.34
2022-08-07T11:26:43.267Z,22.29
2022-08-07T11:32:01.047Z,25.00
2022-08-07T11:37:16.937Z,25.28
2022-08-07T11:42:29.762Z,23.22
2022-08-07T11:47:59.494Z,24.85
2022-08-07T11:53:33.764Z,23.64
2022-08-07T11:58:53.876Z,23.14
2022-08-07T12:04:24.873Z,21.44
2022-08-07T12:09:53.734Z,24.38
2022-08-07T12:15:03.328Z,22.49
2022-08-07T12:20:18.555Z,22.77
2022-08-07T12:26:06.252Z,22.89
2022-08-07T12:31:22.407Z,23.53
2022-08-07T12:36:33.180Z,24.52
2022-08-07T12:41:42.864Z,22.12
2022-08-07T12:47:30.509Z,21.90
2022-08-07T12:52:35.161Z,21.82
2022-08-07T12:58:02.135Z,22.39
2022-08-07T13:03:01.048Z,22.00
2022-08-07T13:08:42.910Z,21.11
2022-08-07T13:13:53.864Z,22.69
2022-08-07T13:19:34.835Z,22.29
2022-08-07T13:24:54.096Z,22.64
2022-08-07T13:30:07.645Z,23.15
2022-08-07T13:35:21.717Z,21.67
2022-08-07T13:40:35.198Z,24.34
2022-08-07T13:46:12.453Z,21.67
2022-08-07T13:51:20.490Z,21.90
2022-08-07T13:56:35.435Z,20.99
2022-08-07T14:02:04.069Z,20.93
2022-08-07T14:07:09.260Z,21.78
2022-08-07T14:12:28.107Z,23.10
2022-08-07T14:18:23.540Z,20.99
2022-08-07T14:23:58.810Z,20.96
2022-08-07T14:28:57.373Z,20.63
2022-08-07T14:34:02.903Z,19.77
2022-08-07T14:39:12.560Z,21.25
2022-08-07T14:44:33.607Z,22.68
2022-08-07T14:49:58.328Z,21.10
2022-08-07T14:55:01.712Z,20.63
2022-08-07T15:00:06.642Z,20.58
2022-08-07T15:05:20.047Z,21.28
2022-08-07T15:10:29.654Z,20.91
2022-08-07T15:15:52.763Z,20.66
2022-08-07T15:21:03.772Z,21.41
2022-08-07T15:26:11.638Z,20.57
2022-08-07T15:32:01.059Z,21.41
2022-08-07T15:37:02.738Z,20.85
2022-08-07T15:48:00.296Z,21.75
2022-08-07T15:52:51.866Z,20.60
2022-08-07T15:58:00.273Z,22.49
2022-08-07T16:03:06.546Z,22.16
2022-08-07T16:08:32.663Z,21.69
2022-08-07T16:13:58.471Z,22.52
2022-08-07T16:19:12.962Z,21.61
2022-08-07T16:24:34.394Z,24.67
2022-08-07T16:30:29.579Z,23.58
2022-08-07T16:35:52.052Z,22.05
2022-08-07T16:41:22.712Z,23.59
2022-08-07T16:47:16.625Z,23.26
2022-08-07T16:52:55.392Z,23.32
2022-08-07T16:58:09.616Z,23.94
2022-08-07T17:03:58.275Z,24.56
2022-08-07T17:09:09.277Z,24.79
2022-08-07T17:14:23.755Z,25.44
2022-08-07T17:20:02.544Z,26.12
2022-08-07T17:25:19.159Z,25.89
2022-08-07T17:30:26.628Z,26.42
2022-08-07T17:35:59.616Z,27.15
2022-08-07T17:42:02.104Z,27.24
2022-08-07T17:46:52.481Z,27.81
2022-08-07T17:52:10.390Z,28.35
2022-08-07T17:57:56.129Z,28.04
2022-08-07T18:02:57.844Z,28.66
2022-08-07T18:08:16.423Z,28.81
2022-08-07T18:13:40.738Z,28.74
2022-08-07T18:21:03.287Z,28.59
2022-08-07T18:24:34.248Z,30.18
2022-08-07T18:30:07.390Z,31.07
2022-08-07T18:35:16.407Z,30.83
2022-08-07T18:40:50.223Z,31.44
2022-08-07T18:46:25.698Z,32.05
2022-08-07T18:52:35.501Z,32.16
2022-08-07T18:57:30.513Z,32.04
2022-08-07T19:02:51.544Z,33.00
2022-08-07T19:08:07.113Z,33.16
2022-08-07T19:13:23.216Z,33.66
2022-08-07T19:18:36.787Z,33.95
2022-08-07T19:23:57.918Z,34.79
2022-08-07T19:30:55.556Z,35.16
2022-08-07T19:34:32.607Z,35.87
2022-08-07T19:39:40.417Z,35.93
2022-08-07T19:45:08.651Z,36.71
2022-08-07T19:50:44.294Z,37.23
2022-08-07T19:55:56.623Z,37.90
2022-08-07T20:00:57.398Z,38.06
2022-08-07T20:06:02.331Z,38.26
2022-08-07T20:11:12.269Z,39.62
2022-08-07T20:16:35.808Z,40.30
2022-08-07T20:21:48.309Z,41.79
2022-08-07T20:26:54.758Z,41.87
2022-08-07T20:31:58.701Z,43.54
2022-08-07T20:37:04.890Z,44.79
2022-08-07T20:42:11.583Z,45.20
2022-08-07T20:47:17.036Z,46.25
2022-08-07T20:52:50.395Z,47.07
2022-08-07T20:58:02.501Z,47.19
2022-08-07T21:03:07.316Z,48.08
2022-08-07T21:08:12.803Z,48.81
2022-08-07T21:13:19.051Z,48.97
2022-08-07T21:18:33.463Z,49.97
2022-08-07T21:23:56.293Z,50.21
2022-08-07T21:29:06.886Z,50.41
2022-08-07T21:34:32.191Z,50.83
2022-08-07T21:39:51.859Z,50.64
2022-08-07T21:46:04.736Z,51.50
2022-08-07T21:50:34.881Z,51.95
2022-08-07T21:55:45.595Z,52.36
2022-08-07T22:00:53.168Z,52.21
2022-08-07T22:06:03.674Z,53.03
2022-08-07T22:11:06.025Z,52.95
2022-08-07T22:16:43.043Z,53.85
2022-08-07T22:22:02.203Z,53.82
2022-08-07T22:28:08.349Z,54.79
2022-08-07T22:33:12.484Z,55.02
2022-08-07T22:38:47.947Z,56.06
2022-08-07T22:43:54.671Z,56.25
2022-08-07T22:49:13.681Z,56.65
2022-08-07T22:54:36.431Z,56.82
2022-08-07T23:00:08.974Z,57.47
2022-08-07T23:06:08.827Z,58.36
2022-08-07T23:11:12.938Z,58.97
2022-08-07T23:17:04.244Z,59.55
2022-08-07T23:22:39.307Z,60.33
2022-08-07T23:28:20.454Z,60.77
2022-08-07T23:34:34.866Z,60.96
2022-08-07T23:39:08.377Z,61.61
2022-08-07T23:44:16.321Z,62.01
2022-08-07T23:49:50.854Z,62.29
2022-08-07T23:55:53.110Z,62.81
